Time,TemperatureF,DewpointF,PressureIn,WindDirection,WindDirectionDegrees,WindSpeedMPH,WindSpeedGustMPH,Humidity,HourlyPrecipIn,Conditions,Clouds,dailyrainin,SolarRadiationWatts/m^2,SoftwareType,DateUTC
2013-01-16 00:00:00,19.0,16.6,30.15,NE,51,0.0,0.0,90,0.00,,CLR,0.01,0.00,VWS V14.01,2013-01-16 06:00:00,
2013-01-16 00:05:00,18.9,16.5,30.15,NE,51,0.0,0.0,90,0.00,,CLR,0.00,0.00,VWS V14.01,2013-01-16 06:05:00,
2013-01-16 00:10:00,18.8,16.4,30.15,NE,51,0.0,0.0,90,0.00,,CLR,0.00,0.00,VWS V14.01,2013-01-16 06:10:00,
2013-01-16 00:15:00,18.6,16.2,30.16,NE,51,0.0,0.0,90,0.00,,CLR,0.00,0.00,VWS V14.01,2013-01-16 06:15:00,
2013-01-16 00:20:00,18.5,16.1,30.16,NE,51,0.0,0.0,90,0.00,,CLR,0.00,0.00,VWS V14.01,2013-01-16 06:20:00,
2013-01-16 00:25:00,18.3,15.9,30.16,NE,51,0.0,0.0,90,0.00,,CLR,0.00,0.00,VWS V14.01,2013-01-16 06:25:00,
2013-01-16 00:30:00,18.1,15.7,30.16,NE,51,0.0,0.0,90,0.00,,CLR,0.00,0.00,VWS V14.01,2013-01-16 06:30:00,
2013-01-16 00:35:00,18.0,15.6,30.16,NE,51,0.0,0.0,90,0.00,,CLR,0.00,0.00,VWS V14.01,2013-01-16 06:35:00,
2013-01-16 00:40:00,17.9,15.5,30.16,NE,51,0.0,0.0,90,0.00,,CLR,0.00,0.00,VWS V14.01,2013-01-16 06:40:00,
2013-01-16 00:45:00,17.8,15.4,30.15,NE,51,0.0,0.0,90,0.00,,CLR,0.00,0.00,VWS V14.01,2013-01-16 06:45:00,
2013-01-16 00:50:00,17.7,15.5,30.15,NE,51,0.0,0.0,91,0.00,,CLR,0.00,0.00,VWS V14.01,2013-01-16 06:50:00,
2013-01-16 00:55:00,17.7,15.5,30.15,NE,51,0.0,0.0,91,0.00,,CLR,0.00,0.00,VWS V14.01,2013-01-16 06:55:00,
2013-01-16 01:00:00,17.7,15.5,30.15,NE,51,0.0,0.0,91,0.00,,CLR,0.00,0.00,VWS V14.01,2013-01-16 07:00:00,
2013-01-16 01:05:00,17.7,15.5,30.15,NE,51,0.0,0.0,91,0.00,,CLR,0.00,0.00,VWS V14.01,2013-01-16 07:05:00,
2013-01-16 01:10:00,17.7,15.5,30.15,NE,51,0.0,0.0,91,0.00,,CLR,0.00,0.00,VWS V14.01,2013-01-16 07:10:00,
2013-01-16 01:15:00,17.7,15.5,30.14,NE,51,0.0,0.0,91,0.00,,CLR,0.00,0.00,VWS V14.01,2013-01-16 07:15:00,
2013-01-16 01:20:00,17.7,15.5,30.14,NE,51,0.0,0.0,91,0.00,,CLR,0.00,0.00,VWS V14.01,2013-01-16 07:20:00,
2013-01-16 01:25:00,17.6,15.7,30.14,NE,51,0.0,0.0,92,0.00,,CLR,0.00,0.00,VWS V14.01,2013-01-16 07:25:00,
2013-01-16 01:30:00,17.6,15.7,30.15,NE,51,0.0,0.0,92,0.00,,CLR,0.00,0.00,VWS V14.01,2013-01-16 07:30:00,
2013-01-16 01:35:00,17.6,15.4,30.15,NE,51,0.0,0.0,91,0.00,,CLR,0.00,0.00,VWS V14.01,2013-01-16 07:35:00,
2013-01-16 01:40:00,17.4,15.2,30.15,NE,51,0.0,0.0,91,0.00,,CLR,0.00,0.00,VWS V14.01,2013-01-16 07:40:00,
2013-01-16 01:45:00,17.3,15.1,30.15,NE,51,0.0,0.0,91,0.00,,CLR,0.00,0.00,VWS V14.01,2013-01-16 07:45:00,
2013-01-16 01:50:00,17.2,15.0,30.15,NE,51,0.0,0.0,91,0.00,,CLR,0.00,0.00,VWS V14.01,2013-01-16 07:50:00,
2013-01-16 01:56:00,17.0,14.8,30.15,NE,51,0.0,0.0,91,0.00,,CLR,0.00,0.00,VWS V14.01,2013-01-16 07:56:00,
2013-01-16 02:01:00,16.9,14.7,30.15,NE,51,0.0,0.0,91,0.00,,CLR,0.00,0.00,VWS V14.01,2013-01-16 08:01:00,
2013-01-16 02:06:00,16.8,14.6,30.15,NE,51,0.0,0.0,91,0.00,,CLR,0.00,0.00,VWS V14.01,2013-01-16 08:06:00,
2013-01-16 02:11:00,16.7,14.5,30.15,NE,51,0.0,0.0,91,0.00,,CLR,0.00,0.00,VWS V14.01,2013-01-16 08:11:00,
2013-01-16 02:16:00,16.5,14.3,30.15,NE,51,0.0,0.0,91,0.00,,CLR,0.00,0.00,VWS V14.01,2013-01-16 08:16:00,
2013-01-16 02:21:00,16.4,14.2,30.15,NE,51,0.0,0.0,91,0.00,,CLR,0.00,0.00,VWS V14.01,2013-01-16 08:21:00,
2013-01-16 02:26:00,16.2,14.0,30.15,NE,51,0.0,0.0,91,0.00,,CLR,0.00,0.00,VWS V14.01,2013-01-16 08:26:00,
2013-01-16 02:31:00,16.0,13.6,30.15,NE,51,0.0,0.0,90,0.00,,CLR,0.00,0.00,VWS V14.01,2013-01-16 08:31:00,
2013-01-16 02:36:00,15.8,13.4,30.15,NE,51,0.0,0.0,90,0.00,,CLR,0.00,0.00,VWS V14.01,2013-01-16 08:36:00,
2013-01-16 02:41:00,15.7,13.3,30.15,NE,51,0.0,0.0,90,0.00,,CLR,0.00,0.00,VWS V14.01,2013-01-16 08:41:00,
2013-01-16 02:46:00,15.6,13.2,30.14,NE,51,0.0,0.0,90,0.00,,CLR,0.00,0.00,VWS V14.01,2013-01-16 08:46:00,
2013-01-16 02:51:00,15.6,13.4,30.14,NE,51,0.0,0.0,91,0.00,,CLR,0.00,0.00,VWS V14.01,2013-01-16 08:51:00,
2013-01-16 02:56:00,15.6,13.4,30.14,NE,51,0.0,0.0,91,0.00,,CLR,0.00,0.00,VWS V14.01,2013-01-16 08:56:00,
2013-01-16 03:01:00,15.6,13.4,30.14,NE,51,0.0,0.0,91,0.00,,CLR,0.00,0.00,VWS V14.01,2013-01-16 09:01:00,
2013-01-16 03:06:00,15.5,13.4,30.14,NE,51,0.0,0.0,91,0.00,,CLR,0.00,0.00,VWS V14.01,2013-01-16 09:06:00,
2013-01-16 03:11:00,15.5,13.4,30.14,NE,51,0.0,0.0,91,0.00,,CLR,0.00,0.00,VWS V14.01,2013-01-16 09:11:00,
2013-01-16 03:16:00,15.4,13.2,30.14,NE,51,0.0,0.0,91,0.00,,CLR,0.00,0.00,VWS V14.01,2013-01-16 09:16:00,
2013-01-16 03:21:00,15.3,13.1,30.14,NE,51,0.0,0.0,91,0.00,,CLR,0.00,0.00,VWS V14.01,2013-01-16 09:21:00,
2013-01-16 03:26:00,15.3,13.1,30.14,NE,51,0.0,0.0,91,0.00,,CLR,0.00,0.00,VWS V14.01,2013-01-16 09:26:00,
2013-01-16 03:31:00,15.1,12.9,30.14,NE,51,0.0,0.0,91,0.00,,CLR,0.00,0.00,VWS V14.01,2013-01-16 09:31:00,
2013-01-16 03:36:00,15.0,12.9,30.14,NE,51,0.0,0.0,91,0.00,,CLR,0.00,0.00,VWS V14.01,2013-01-16 09:36:00,
2013-01-16 03:42:00,14.9,12.8,30.14,NE,51,0.0,0.0,91,0.00,,CLR,0.00,0.00,VWS V14.01,2013-01-16 09:42:00,
2013-01-16 03:47:00,14.9,12.8,30.14,NE,51,0.0,0.0,91,0.00,,CLR,0.00,0.00,VWS V14.01,2013-01-16 09:47:00,
2013-01-16 03:52:00,14.9,12.8,30.14,NE,51,0.0,0.0,91,0.00,,CLR,0.00,0.00,VWS V14.01,2013-01-16 09:52:00,
2013-01-16 03:57:00,15.0,12.9,30.14,NE,51,0.0,0.0,91,0.00,,CLR,0.00,0.00,VWS V14.01,2013-01-16 09:57:00,
2013-01-16 04:02:00,15.0,12.9,30.14,NE,51,0.0,0.0,91,0.00,,CLR,0.00,0.00,VWS V14.01,2013-01-16 10:02:00,
2013-01-16 04:07:00,15.0,12.9,30.14,NE,51,0.0,0.0,91,0.00,,CLR,0.00,0.00,VWS V14.01,2013-01-16 10:07:00,
2013-01-16 04:12:00,15.0,12.9,30.14,NE,51,0.0,0.0,91,0.00,,CLR,0.00,0.00,VWS V14.01,2013-01-16 10:12:00,
2013-01-16 04:17:00,15.0,12.9,30.13,NE,51,0.0,0.0,91,0.00,,CLR,0.00,0.00,VWS V14.01,2013-01-16 10:17:00,
2013-01-16 04:22:00,15.0,12.9,30.13,NE,51,0.0,0.0,91,0.00,,CLR,0.00,0.00,VWS V14.01,2013-01-16 10:22:00,
2013-01-16 04:27:00,14.9,12.8,30.13,NE,51,0.0,0.0,91,0.00,,CLR,0.00,0.00,VWS V14.01,2013-01-16 10:27:00,
2013-01-16 04:32:00,14.9,12.8,30.13,NE,51,0.0,0.0,91,0.00,,CLR,0.00,0.00,VWS V14.01,2013-01-16 10:32:00,
2013-01-16 04:37:00,14.8,12.6,30.13,NE,51,0.0,0.0,91,0.00,,CLR,0.00,0.00,VWS V14.01,2013-01-16 10:37:00,
2013-01-16 04:42:00,14.6,12.5,30.13,NE,51,0.0,0.0,91,0.00,,CLR,0.00,0.00,VWS V14.01,2013-01-16 10:42:00,
2013-01-16 04:47:00,14.6,12.5,30.12,NE,51,0.0,0.0,91,0.00,,CLR,0.00,0.00,VWS V14.01,2013-01-16 10:47:00,
2013-01-16 04:52:00,14.6,12.5,30.12,NE,51,0.0,0.0,91,0.00,,CLR,0.00,0.00,VWS V14.01,2013-01-16 10:52:00,
2013-01-16 04:57:00,14.6,12.5,30.12,NE,51,0.0,0.0,91,0.00,,CLR,0.00,0.00,VWS V14.01,2013-01-16 10:57:00,
2013-01-16 05:02:00,14.5,12.4,30.12,NE,51,0.0,0.0,91,0.00,,CLR,0.00,0.00,VWS V14.01,2013-01-16 11:02:00,
2013-01-16 05:07:00,14.5,12.4,30.12,NE,51,0.0,0.0,91,0.00,,CLR,0.00,0.00,VWS V14.01,2013-01-16 11:07:00,
2013-01-16 05:12:00,14.3,12.2,30.12,NE,51,0.0,0.0,91,0.00,,CLR,0.00,0.00,VWS V14.01,2013-01-16 11:12:00,
2013-01-16 05:17:00,14.2,12.1,30.13,NE,51,0.0,0.0,91,0.00,,CLR,0.00,0.00,VWS V14.01,2013-01-16 11:17:00,
2013-01-16 05:22:00,14.1,12.0,30.13,NE,51,0.0,0.0,91,0.00,,CLR,0.00,0.00,VWS V14.01,2013-01-16 11:22:00,
2013-01-16 05:27:00,14.1,12.0,30.13,NE,51,0.0,0.0,91,0.00,,CLR,0.00,0.00,VWS V14.01,2013-01-16 11:27:00,
2013-01-16 05:32:00,14.1,12.0,30.14,NE,51,0.0,0.0,91,0.00,,CLR,0.00,0.00,VWS V14.01,2013-01-16 11:32:00,
2013-01-16 05:37:00,14.1,12.0,30.14,NE,51,0.0,0.0,91,0.00,,CLR,0.00,0.00,VWS V14.01,2013-01-16 11:37:00,
2013-01-16 05:42:00,14.0,11.9,30.14,NE,51,0.0,0.0,91,0.00,,CLR,0.00,0.00,VWS V14.01,2013-01-16 11:42:00,
2013-01-16 05:47:00,14.1,12.0,30.13,NE,51,0.0,0.0,91,0.00,,CLR,0.00,0.00,VWS V14.01,2013-01-16 11:47:00,
2013-01-16 05:53:00,14.2,12.1,30.13,NE,51,0.0,0.0,91,0.00,,CLR,0.00,0.00,VWS V14.01,2013-01-16 11:53:00,
2013-01-16 05:58:00,14.2,12.1,30.13,NE,51,0.0,0.0,91,0.00,,CLR,0.00,0.00,VWS V14.01,2013-01-16 11:58:00,
2013-01-16 06:03:00,14.2,12.1,30.12,NE,51,0.0,0.0,91,0.00,,CLR,0.00,0.00,VWS V14.01,2013-01-16 12:03:00,
2013-01-16 06:08:00,14.2,12.1,30.12,NE,51,0.0,0.0,91,0.00,,CLR,0.00,0.00,VWS V14.01,2013-01-16 12:08:00,
2013-01-16 06:13:00,14.3,12.2,30.12,NE,51,0.0,0.0,91,0.00,,CLR,0.00,0.00,VWS V14.01,2013-01-16 12:13:00,
2013-01-16 06:18:00,14.3,12.2,30.12,NE,51,0.0,0.0,91,0.00,,CLR,0.00,0.00,VWS V14.01,2013-01-16 12:18:00,
2013-01-16 06:23:00,14.3,12.2,30.12,NE,51,0.0,0.0,91,0.00,,CLR,0.00,0.00,VWS V14.01,2013-01-16 12:23:00,
2013-01-16 06:28:00,14.3,12.2,30.12,NE,51,0.0,0.0,91,0.00,,CLR,0.00,0.00,VWS V14.01,2013-01-16 12:28:00,
2013-01-16 06:33:00,14.3,12.2,30.13,NE,51,0.0,0.0,91,0.00,,CLR,0.00,0.00,VWS V14.01,2013-01-16 12:33:00,
2013-01-16 06:38:00,14.3,12.2,30.13,NE,51,0.0,0.0,91,0.00,,CLR,0.00,0.00,VWS V14.01,2013-01-16 12:38:00,
2013-01-16 06:43:00,14.2,12.1,30.13,NE,51,0.0,0.0,91,0.00,,CLR,0.00,0.00,VWS V14.01,2013-01-16 12:43:00,
2013-01-16 06:48:00,14.0,11.9,30.14,NE,51,0.0,0.0,91,0.00,,CLR,0.00,0.00,VWS V14.01,2013-01-16 12:48:00,
2013-01-16 06:53:00,13.7,11.6,30.14,NE,51,0.0,0.0,91,0.00,,CLR,0.00,0.00,VWS V14.01,2013-01-16 12:53:00,
2013-01-16 06:58:00,13.7,11.6,30.14,NE,51,0.0,0.0,91,0.00,,CLR,0.00,0.00,VWS V14.01,2013-01-16 12:58:00,
2013-01-16 07:03:00,13.7,11.6,30.13,NE,51,0.0,0.0,91,0.00,,CLR,0.00,0.00,VWS V14.01,2013-01-16 13:03:00,
2013-01-16 07:08:00,13.7,11.6,30.13,NE,51,0.0,0.0,91,0.00,,CLR,0.00,0.00,VWS V14.01,2013-01-16 13:08:00,
2013-01-16 07:13:00,13.8,11.7,30.13,NE,51,0.0,0.0,91,0.00,,CLR,0.00,0.00,VWS V14.01,2013-01-16 13:13:00,
2013-01-16 07:18:00,13.9,11.8,30.14,NE,51,0.0,0.0,91,0.00,,CLR,0.00,0.00,VWS V14.01,2013-01-16 13:18:00,
2013-01-16 07:23:00,13.9,11.8,30.14,NE,51,0.0,0.0,91,0.00,,CLR,0.00,0.00,VWS V14.01,2013-01-16 13:23:00,
2013-01-16 07:28:00,13.9,11.8,30.14,NE,51,0.0,0.0,91,0.00,,CLR,0.00,0.00,VWS V14.01,2013-01-16 13:28:00,
2013-01-16 07:33:00,14.0,11.9,30.14,NE,51,0.0,0.0,91,0.00,,CLR,0.00,5.00,VWS V14.01,2013-01-16 13:33:00,
2013-01-16 07:38:00,14.0,11.9,30.14,NE,51,0.0,0.0,91,0.00,,CLR,0.00,7.00,VWS V14.01,2013-01-16 13:38:00,
2013-01-16 07:43:00,14.0,11.9,30.14,NE,51,0.0,0.0,91,0.00,,CLR,0.00,11.00,VWS V14.01,2013-01-16 13:43:00,
2013-01-16 07:48:00,13.9,11.8,30.15,NE,51,0.0,0.0,91,0.00,,CLR,0.00,12.00,VWS V14.01,2013-01-16 13:48:00,
2013-01-16 07:54:00,13.9,11.8,30.15,NE,51,0.0,0.0,91,0.00,,CLR,0.00,12.00,VWS V14.01,2013-01-16 13:54:00,
2013-01-16 07:59:00,13.8,11.7,30.15,NE,51,0.0,0.0,91,0.00,,CLR,0.00,14.00,VWS V14.01,2013-01-16 13:59:00,
2013-01-16 08:04:00,13.8,11.7,30.14,NE,51,0.0,0.0,91,0.00,,CLR,0.00,18.00,VWS V14.01,2013-01-16 14:04:00,
2013-01-16 08:09:00,13.8,11.7,30.14,NE,51,0.0,0.0,91,0.00,,CLR,0.00,21.00,VWS V14.01,2013-01-16 14:09:00,
2013-01-16 08:14:00,14.0,11.9,30.14,NE,51,0.0,0.0,91,0.00,,CLR,0.00,21.00,VWS V14.01,2013-01-16 14:14:00,
2013-01-16 08:19:00,14.2,12.1,30.15,NE,51,0.0,0.0,91,0.00,,CLR,0.00,26.00,VWS V14.01,2013-01-16 14:19:00,
2013-01-16 08:24:00,14.3,12.4,30.15,NE,51,0.0,0.0,92,0.00,,CLR,0.00,25.00,VWS V14.01,2013-01-16 14:24:00,
2013-01-16 08:29:00,14.5,12.6,30.15,NE,51,0.0,0.0,92,0.00,,CLR,0.00,28.00,VWS V14.01,2013-01-16 14:29:00,
2013-01-16 08:34:00,14.7,12.8,30.15,NE,51,0.0,0.0,92,0.00,,CLR,0.00,47.00,VWS V14.01,2013-01-16 14:34:00,
2013-01-16 08:39:00,14.9,13.0,30.15,NE,51,0.0,0.0,92,0.00,,CLR,0.00,51.00,VWS V14.01,2013-01-16 14:39:00,
2013-01-16 08:44:00,15.2,13.3,30.15,NE,51,0.0,0.0,92,0.00,,CLR,0.00,51.00,VWS V14.01,2013-01-16 14:44:00,
2013-01-16 08:49:00,15.7,14.0,30.16,NE,51,0.0,0.0,93,0.00,,CLR,0.00,121.00,VWS V14.01,2013-01-16 14:49:00,
2013-01-16 08:54:00,16.4,14.7,30.16,NE,51,0.0,0.0,93,0.00,,CLR,0.00,179.00,VWS V14.01,2013-01-16 14:54:00,
2013-01-16 08:59:00,17.2,15.5,30.16,NE,51,0.0,0.0,93,0.00,,CLR,0.00,195.00,VWS V14.01,2013-01-16 14:59:00,
2013-01-16 09:04:00,18.0,16.6,30.16,West,277,0.0,1.0,94,0.00,,CLR,0.00,216.00,VWS V14.01,2013-01-16 15:04:00,
2013-01-16 09:09:00,18.7,17.3,30.16,West,277,0.0,0.0,94,0.00,,CLR,0.00,227.00,VWS V14.01,2013-01-16 15:09:00,
2013-01-16 09:14:00,19.5,18.1,30.16,West,277,0.0,0.0,94,0.00,,CLR,0.00,239.00,VWS V14.01,2013-01-16 15:14:00,
2013-01-16 09:19:00,20.3,18.9,30.16,West,277,0.0,0.0,94,0.00,,CLR,0.00,257.00,VWS V14.01,2013-01-16 15:19:00,
2013-01-16 09:24:00,21.0,19.5,30.16,SSW,202,0.0,2.0,94,0.00,,CLR,0.00,271.00,VWS V14.01,2013-01-16 15:24:00,
2013-01-16 09:29:00,21.7,20.2,30.16,SSW,207,2.0,2.0,94,0.00,,CLR,0.00,283.00,VWS V14.01,2013-01-16 15:29:00,
2013-01-16 09:34:00,22.3,20.8,30.16,SSW,213,0.0,2.0,94,0.00,,CLR,0.00,297.00,VWS V14.01,2013-01-16 15:34:00,
2013-01-16 09:39:00,22.8,21.1,30.16,WSW,256,1.0,4.0,93,0.00,,CLR,0.00,318.00,VWS V14.01,2013-01-16 15:39:00,
2013-01-16 09:44:00,23.4,21.4,30.16,SSW,198,0.0,2.0,92,0.00,,CLR,0.00,304.00,VWS V14.01,2013-01-16 15:44:00,
2013-01-16 09:49:00,23.9,21.7,30.16,SW,222,0.0,3.0,91,0.00,,CLR,0.00,345.00,VWS V14.01,2013-01-16 15:49:00,
2013-01-16 09:54:00,24.5,21.7,30.16,WSW,237,0.0,2.0,89,0.00,,CLR,0.00,357.00,VWS V14.01,2013-01-16 15:54:00,
2013-01-16 09:59:00,25.2,21.9,30.16,WSW,237,0.0,1.0,87,0.00,,CLR,0.00,388.00,VWS V14.01,2013-01-16 15:59:00,
2013-01-16 10:04:00,25.8,21.9,30.15,West,261,1.0,4.0,85,0.00,,CLR,0.00,420.00,VWS V14.01,2013-01-16 16:04:00,
2013-01-16 10:09:00,26.5,22.3,30.15,South,178,3.0,4.0,84,0.00,,CLR,0.00,439.00,VWS V14.01,2013-01-16 16:09:00,
2013-01-16 10:14:00,27.2,22.4,30.15,West,261,3.0,5.0,82,0.00,,CLR,0.00,446.00,VWS V14.01,2013-01-16 16:14:00,
2013-01-16 10:20:00,27.9,22.5,30.15,WSW,253,1.0,5.0,80,0.00,,CLR,0.00,455.00,VWS V14.01,2013-01-16 16:20:00,
2013-01-16 10:25:00,28.5,22.5,30.15,WSW,254,0.0,3.0,78,0.00,,CLR,0.00,464.00,VWS V14.01,2013-01-16 16:25:00,
2013-01-16 10:30:00,29.0,22.4,30.15,SSE,168,0.0,4.0,76,0.00,,CLR,0.00,471.00,VWS V14.01,2013-01-16 16:30:00,
2013-01-16 10:35:00,29.7,22.1,30.15,WSW,252,1.0,4.0,73,0.00,,CLR,0.00,473.00,VWS V14.01,2013-01-16 16:35:00,
2013-01-16 10:40:00,30.2,22.3,30.15,SE,128,0.0,3.0,72,0.00,,CLR,0.00,482.00,VWS V14.01,2013-01-16 16:40:00,
2013-01-16 10:45:00,30.9,22.3,30.14,South,173,0.0,3.0,70,0.00,,CLR,0.00,485.00,VWS V14.01,2013-01-16 16:45:00,
2013-01-16 10:50:00,31.6,21.9,30.14,SSE,166,2.0,4.0,67,0.00,,CLR,0.00,496.00,VWS V14.01,2013-01-16 16:50:00,
2013-01-16 10:55:00,32.3,22.6,30.14,SSE,165,0.0,4.0,67,0.00,,CLR,0.00,504.00,VWS V14.01,2013-01-16 16:55:00,
2013-01-16 11:00:00,33.0,22.5,30.13,WSW,246,2.0,4.0,65,0.00,,CLR,0.00,513.00,VWS V14.01,2013-01-16 17:00:00,
2013-01-16 11:05:00,33.5,21.9,30.13,West,260,0.0,5.0,62,0.00,,CLR,0.00,520.00,VWS V14.01,2013-01-16 17:05:00,
2013-01-16 11:10:00,34.0,21.6,30.13,WSW,243,0.0,4.0,60,0.00,,CLR,0.00,527.00,VWS V14.01,2013-01-16 17:10:00,
2013-01-16 11:15:00,34.4,21.6,30.13,WSW,238,2.0,7.0,59,0.00,,CLR,0.00,533.00,VWS V14.01,2013-01-16 17:15:00,
2013-01-16 11:20:00,35.0,22.1,30.13,WSW,251,0.0,5.0,59,0.00,,CLR,0.00,538.00,VWS V14.01,2013-01-16 17:20:00,
2013-01-16 11:25:00,35.3,21.6,30.13,WSW,253,4.0,6.0,57,0.00,,CLR,0.00,543.00,VWS V14.01,2013-01-16 17:25:00,
2013-01-16 11:30:00,35.5,21.4,30.12,NW,323,2.0,6.0,56,0.00,,CLR,0.00,548.00,VWS V14.01,2013-01-16 17:30:00,
2013-01-16 11:35:00,35.9,22.2,30.12,West,260,5.0,6.0,57,0.00,,CLR,0.00,550.00,VWS V14.01,2013-01-16 17:35:00,
2013-01-16 11:40:00,36.0,22.7,30.12,West,263,2.0,8.0,58,0.00,,CLR,0.00,555.00,VWS V14.01,2013-01-16 17:40:00,
2013-01-16 11:45:00,36.2,23.3,30.11,West,273,2.0,6.0,59,0.00,,CLR,0.00,559.00,VWS V14.01,2013-01-16 17:45:00,
2013-01-16 11:50:00,36.6,24.0,30.11,SW,225,3.0,6.0,60,0.00,,CLR,0.00,563.00,VWS V14.01,2013-01-16 17:50:00,
2013-01-16 11:55:00,36.8,23.0,30.11,SW,236,5.0,7.0,57,0.00,,CLR,0.00,564.00,VWS V14.01,2013-01-16 17:55:00,
2013-01-16 12:00:00,37.0,22.8,30.10,West,271,0.0,12.0,56,0.00,,CLR,0.00,568.00,VWS V14.01,2013-01-16 18:00:00,
2013-01-16 12:05:00,37.3,23.5,30.10,NNW,338,3.0,7.0,57,0.00,,CLR,0.00,571.00,VWS V14.01,2013-01-16 18:05:00,
2013-01-16 12:10:00,37.6,24.2,30.10,SSE,159,0.0,7.0,58,0.00,,CLR,0.00,573.00,VWS V14.01,2013-01-16 18:10:00,
2013-01-16 12:15:00,38.0,23.7,30.10,West,260,0.0,8.0,56,0.00,,CLR,0.00,571.00,VWS V14.01,2013-01-16 18:15:00,
2013-01-16 12:20:00,38.2,22.6,30.10,SW,227,4.0,9.0,53,0.01,,CLR,0.01,575.00,VWS V14.01,2013-01-16 18:20:00,
2013-01-16 12:25:00,38.2,22.6,30.10,WNW,284,3.0,9.0,53,0.01,,CLR,0.01,575.00,VWS V14.01,2013-01-16 18:25:00,
2013-01-16 12:30:00,38.3,22.2,30.09,SW,236,2.0,9.0,52,0.01,,CLR,0.01,575.00,VWS V14.01,2013-01-16 18:30:00,
2013-01-16 12:35:00,38.4,22.3,30.09,West,265,12.0,12.0,52,0.01,,CLR,0.01,575.00,VWS V14.01,2013-01-16 18:35:00,
2013-01-16 12:41:00,38.5,23.8,30.09,SW,233,1.0,8.0,55,0.01,,CLR,0.01,573.00,VWS V14.01,2013-01-16 18:41:00,
2013-01-16 12:46:00,38.8,22.7,30.10,WSW,255,5.0,11.0,52,0.01,,CLR,0.01,571.00,VWS V14.01,2013-01-16 18:46:00,
2013-01-16 12:51:00,38.8,22.2,30.10,West,269,5.0,10.0,51,0.01,,CLR,0.01,570.00,VWS V14.01,2013-01-16 18:51:00,
2013-01-16 12:56:00,38.7,23.1,30.10,SW,234,2.0,9.0,53,0.01,,CLR,0.01,568.00,VWS V14.01,2013-01-16 18:56:00,
2013-01-16 13:01:00,39.1,23.0,30.08,West,271,4.0,8.0,52,0.01,,CLR,0.01,568.00,VWS V14.01,2013-01-16 19:01:00,
2013-01-16 13:06:00,39.3,24.1,30.08,SW,223,4.0,9.0,54,0.01,,CLR,0.01,561.00,VWS V14.01,2013-01-16 19:06:00,
2013-01-16 13:11:00,39.7,24.0,30.08,SSW,196,0.0,5.0,53,0.01,,CLR,0.01,561.00,VWS V14.01,2013-01-16 19:11:00,
2013-01-16 13:16:00,40.0,23.4,30.07,NW,307,3.0,9.0,51,0.01,,CLR,0.01,559.00,VWS V14.01,2013-01-16 19:16:00,
2013-01-16 13:21:00,40.0,22.9,30.07,SW,215,3.0,10.0,50,0.01,,CLR,0.01,554.00,VWS V14.01,2013-01-16 19:21:00,
2013-01-16 13:26:00,40.0,22.4,30.07,WNW,284,5.0,10.0,49,0.00,,CLR,0.01,548.00,VWS V14.01,2013-01-16 19:26:00,
2013-01-16 13:31:00,40.3,23.1,30.07,WNW,284,4.0,8.0,50,0.00,,CLR,0.01,543.00,VWS V14.01,2013-01-16 19:31:00,
2013-01-16 13:36:00,40.7,23.5,30.07,West,259,4.0,7.0,50,0.00,,CLR,0.01,534.00,VWS V14.01,2013-01-16 19:36:00,
2013-01-16 13:41:00,41.0,23.3,30.07,SW,230,4.0,8.0,49,0.00,,CLR,0.01,533.00,VWS V14.01,2013-01-16 19:41:00,
2013-01-16 13:46:00,41.0,22.8,30.07,WSW,244,7.0,9.0,48,0.00,,CLR,0.01,526.00,VWS V14.01,2013-01-16 19:46:00,
2013-01-16 13:51:00,40.9,22.2,30.07,WSW,254,2.0,7.0,47,0.00,,CLR,0.01,519.00,VWS V14.01,2013-01-16 19:51:00,
2013-01-16 13:56:00,41.1,22.4,30.07,West,277,2.0,13.0,47,0.00,,CLR,0.01,512.00,VWS V14.01,2013-01-16 19:56:00,
2013-01-16 14:01:00,41.2,22.0,30.06,NW,315,6.0,10.0,46,0.00,,CLR,0.01,501.00,VWS V14.01,2013-01-16 20:01:00,
2013-01-16 14:06:00,41.3,23.6,30.06,SW,221,10.0,10.0,49,0.00,,CLR,0.01,496.00,VWS V14.01,2013-01-16 20:06:00,
2013-01-16 14:11:00,41.3,23.1,30.06,WNW,299,3.0,9.0,48,0.00,,CLR,0.01,485.00,VWS V14.01,2013-01-16 20:11:00,
2013-01-16 14:16:00,41.1,21.9,30.06,WSW,251,3.0,11.0,46,0.00,,CLR,0.01,478.00,VWS V14.01,2013-01-16 20:16:00,
2013-01-16 14:21:00,41.1,22.4,30.06,WSW,237,7.0,11.0,47,0.00,,CLR,0.01,469.00,VWS V14.01,2013-01-16 20:21:00,
2013-01-16 14:26:00,41.1,22.4,30.06,NW,313,2.0,8.0,47,0.00,,CLR,0.01,461.00,VWS V14.01,2013-01-16 20:26:00,
2013-01-16 14:31:00,41.6,22.9,30.06,WSW,254,4.0,6.0,47,0.00,,CLR,0.01,446.00,VWS V14.01,2013-01-16 20:31:00,
2013-01-16 14:36:00,41.8,23.6,30.06,WNW,285,8.0,9.0,48,0.00,,CLR,0.01,436.00,VWS V14.01,2013-01-16 20:36:00,
2013-01-16 14:41:00,41.7,21.9,30.06,WNW,285,2.0,13.0,45,0.00,,CLR,0.01,425.00,VWS V14.01,2013-01-16 20:41:00,
2013-01-16 14:46:00,41.6,22.9,30.06,WNW,282,0.0,10.0,47,0.00,,CLR,0.01,415.00,VWS V14.01,2013-01-16 20:46:00,
2013-01-16 14:51:00,41.6,22.4,30.06,West,265,4.0,5.0,46,0.00,,CLR,0.01,403.00,VWS V14.01,2013-01-16 20:51:00,
2013-01-16 14:56:00,41.6,23.4,30.06,West,262,3.0,7.0,48,0.00,,CLR,0.01,396.00,VWS V14.01,2013-01-16 20:56:00,
2013-01-16 15:01:00,41.4,22.2,30.06,WSW,247,0.0,9.0,46,0.00,,CLR,0.01,385.00,VWS V14.01,2013-01-16 21:01:00,
2013-01-16 15:06:00,41.1,21.9,30.06,West,273,1.0,8.0,46,0.00,,CLR,0.01,369.00,VWS V14.01,2013-01-16 21:06:00,
2013-01-16 15:12:00,41.2,22.0,30.06,SSW,213,5.0,7.0,46,0.00,,CLR,0.01,359.00,VWS V14.01,2013-01-16 21:12:00,
2013-01-16 15:17:00,41.3,23.1,30.06,WNW,302,3.0,5.0,48,0.00,,CLR,0.01,346.00,VWS V14.01,2013-01-16 21:17:00,
2013-01-16 15:22:00,41.5,22.8,30.06,SW,229,0.0,8.0,47,0.00,,CLR,0.01,330.00,VWS V14.01,2013-01-16 21:22:00,
2013-01-16 16:03:00,41.7,21.4,30.07,WNW,295,1.0,9.0,44,0.00,,CLR,0.01,216.00,VWS V14.01,2013-01-16 22:03:00,
2013-01-16 16:08:00,41.6,21.9,30.07,WSW,254,2.0,2.0,45,0.00,,CLR,0.01,200.00,VWS V14.01,2013-01-16 22:08:00,
2013-01-16 16:13:00,41.4,21.7,30.07,WSW,242,1.0,4.0,45,0.00,,CLR,0.01,188.00,VWS V14.01,2013-01-16 22:13:00,
2013-01-16 16:18:00,41.4,22.2,30.07,WSW,247,4.0,4.0,46,0.00,,CLR,0.01,176.00,VWS V14.01,2013-01-16 22:18:00,
2013-01-16 16:23:00,41.3,21.0,30.07,WSW,246,4.0,6.0,44,0.00,,CLR,0.01,162.00,VWS V14.01,2013-01-16 22:23:00,
2013-01-16 16:28:00,41.1,21.4,30.07,WNW,294,8.0,8.0,45,0.00,,CLR,0.01,144.00,VWS V14.01,2013-01-16 22:28:00,
2013-01-16 16:34:00,40.8,22.1,30.08,SW,236,4.0,8.0,47,0.00,,CLR,0.01,127.00,VWS V14.01,2013-01-16 22:34:00,
2013-01-16 16:39:00,40.5,21.9,30.08,SW,231,2.0,6.0,47,0.00,,CLR,0.01,111.00,VWS V14.01,2013-01-16 22:39:00,
2013-01-16 16:44:00,40.2,21.6,30.08,NW,315,3.0,6.0,47,0.00,,CLR,0.01,93.00,VWS V14.01,2013-01-16 22:44:00,
2013-01-16 16:49:00,39.9,21.8,30.08,West,269,0.0,5.0,48,0.00,,CLR,0.01,76.00,VWS V14.01,2013-01-16 22:49:00,
2013-01-16 16:54:00,39.9,22.3,30.08,West,268,1.0,2.0,49,0.00,,CLR,0.01,60.00,VWS V14.01,2013-01-16 22:54:00,
2013-01-16 16:59:00,39.7,22.1,30.08,WNW,293,2.0,4.0,49,0.00,,CLR,0.01,37.00,VWS V14.01,2013-01-16 22:59:00,
2013-01-16 17:04:00,39.4,22.3,30.08,WNW,290,0.0,3.0,50,0.00,,CLR,0.01,21.00,VWS V14.01,2013-01-16 23:04:00,
2013-01-16 17:09:00,39.0,22.4,30.08,West,279,1.0,2.0,51,0.00,,CLR,0.01,14.00,VWS V14.01,2013-01-16 23:09:00,
2013-01-16 17:14:00,38.6,22.5,30.08,West,269,2.0,3.0,52,0.00,,CLR,0.01,9.00,VWS V14.01,2013-01-16 23:14:00,
2013-01-16 17:19:00,38.3,22.2,30.08,WSW,256,0.0,3.0,52,0.00,,CLR,0.01,5.00,VWS V14.01,2013-01-16 23:19:00,
2013-01-16 17:24:00,37.9,22.3,30.08,WSW,256,0.0,2.0,53,0.00,,CLR,0.01,0.00,VWS V14.01,2013-01-16 23:24:00,
2013-01-16 17:29:00,37.6,22.5,30.08,WSW,256,0.0,1.0,54,0.00,,CLR,0.01,0.00,VWS V14.01,2013-01-16 23:29:00,
2013-01-16 17:34:00,37.3,22.2,30.09,WSW,256,0.0,0.0,54,0.00,,CLR,0.01,0.00,VWS V14.01,2013-01-16 23:34:00,
2013-01-16 17:39:00,37.0,22.4,30.09,WSW,256,0.0,1.0,55,0.00,,CLR,0.01,0.00,VWS V14.01,2013-01-16 23:39:00,
2013-01-16 17:44:00,36.7,22.5,30.09,West,275,0.0,3.0,56,0.00,,CLR,0.01,0.00,VWS V14.01,2013-01-16 23:44:00,
2013-01-16 17:49:00,36.4,22.2,30.10,West,275,0.0,1.0,56,0.00,,CLR,0.01,0.00,VWS V14.01,2013-01-16 23:49:00,
2013-01-16 17:54:00,36.2,22.5,30.10,West,275,0.0,1.0,57,0.00,,CLR,0.01,0.00,VWS V14.01,2013-01-16 23:54:00,
2013-01-16 17:59:00,35.9,22.2,30.10,West,275,0.0,1.0,57,0.00,,CLR,0.01,0.00,VWS V14.01,2013-01-16 23:59:00,
2013-01-16 18:04:00,35.7,22.4,30.11,West,275,1.0,1.0,58,0.00,,CLR,0.01,0.00,VWS V14.01,2013-01-17 00:04:00,
2013-01-16 18:09:00,35.6,22.3,30.11,West,275,0.0,1.0,58,0.00,,CLR,0.01,0.00,VWS V14.01,2013-01-17 00:09:00,
2013-01-16 18:14:00,35.4,22.5,30.11,West,275,0.0,0.0,59,0.00,,CLR,0.01,0.00,VWS V14.01,2013-01-17 00:14:00,
2013-01-16 18:19:00,35.2,22.3,30.09,West,275,0.0,0.0,59,0.00,,CLR,0.01,0.00,VWS V14.01,2013-01-17 00:19:00,
2013-01-16 18:24:00,35.0,22.1,30.09,West,275,0.0,0.0,59,0.00,,CLR,0.01,0.00,VWS V14.01,2013-01-17 00:24:00,
2013-01-16 18:29:00,34.8,22.3,30.09,West,275,0.0,0.0,60,0.00,,CLR,0.01,0.00,VWS V14.01,2013-01-17 00:29:00,
2013-01-16 18:34:00,34.7,22.2,30.09,West,275,0.0,0.0,60,0.00,,CLR,0.01,0.00,VWS V14.01,2013-01-17 00:34:00,
2013-01-16 18:39:00,34.5,22.1,30.09,West,275,0.0,0.0,60,0.00,,CLR,0.01,0.00,VWS V14.01,2013-01-17 00:39:00,
2013-01-16 18:44:00,34.4,22.0,30.09,West,275,0.0,0.0,60,0.00,,CLR,0.01,0.00,VWS V14.01,2013-01-17 00:44:00,
2013-01-16 18:50:00,34.4,22.0,30.09,West,275,0.0,0.0,60,0.00,,CLR,0.01,0.00,VWS V14.01,2013-01-17 00:50:00,
2013-01-16 18:55:00,34.2,22.2,30.09,West,275,0.0,0.0,61,0.00,,CLR,0.01,0.00,VWS V14.01,2013-01-17 00:55:00,
2013-01-16 19:00:00,33.9,22.3,30.11,West,275,0.0,0.0,62,0.00,,CLR,0.01,0.00,VWS V14.01,2013-01-17 01:00:00,
2013-01-16 19:05:00,33.7,22.1,30.11,West,275,0.0,0.0,62,0.00,,CLR,0.01,0.00,VWS V14.01,2013-01-17 01:05:00,
2013-01-16 19:10:00,33.5,22.3,30.11,West,275,0.0,0.0,63,0.00,,CLR,0.01,0.00,VWS V14.01,2013-01-17 01:10:00,
2013-01-16 19:15:00,33.2,22.0,30.11,West,275,0.0,0.0,63,0.00,,CLR,0.01,0.00,VWS V14.01,2013-01-17 01:15:00,
2013-01-16 19:20:00,33.1,21.9,30.11,West,275,0.0,0.0,63,0.00,,CLR,0.01,0.00,VWS V14.01,2013-01-17 01:20:00,
2013-01-16 19:25:00,32.9,21.7,30.11,West,275,0.0,0.0,63,0.00,,CLR,0.01,0.00,VWS V14.01,2013-01-17 01:25:00,
2013-01-16 19:30:00,32.8,22.0,30.11,West,275,0.0,0.0,64,0.00,,CLR,0.01,0.00,VWS V14.01,2013-01-17 01:30:00,
2013-01-16 19:35:00,32.6,21.8,30.11,West,275,0.0,0.0,64,0.00,,CLR,0.01,0.00,VWS V14.01,2013-01-17 01:35:00,
2013-01-16 19:40:00,32.4,21.6,30.11,West,275,0.0,0.0,64,0.00,,CLR,0.01,0.00,VWS V14.01,2013-01-17 01:40:00,
2013-01-16 19:45:00,32.3,21.5,30.11,West,275,0.0,0.0,64,0.00,,CLR,0.01,0.00,VWS V14.01,2013-01-17 01:45:00,
2013-01-16 19:50:00,32.0,21.6,30.11,West,275,0.0,0.0,65,0.00,,CLR,0.01,0.00,VWS V14.01,2013-01-17 01:50:00,
2013-01-16 19:55:00,31.6,21.2,30.11,West,275,0.0,0.0,65,0.00,,CLR,0.01,0.00,VWS V14.01,2013-01-17 01:55:00,
2013-01-16 20:00:00,31.3,21.3,30.11,West,275,0.0,0.0,66,0.00,,CLR,0.01,0.00,VWS V14.01,2013-01-17 02:00:00,
2013-01-16 20:05:00,30.9,23.0,30.11,West,275,0.0,0.0,72,0.00,,CLR,0.01,0.00,VWS V14.01,2013-01-17 02:05:00,
2013-01-16 20:11:00,30.7,21.4,30.11,West,275,0.0,0.0,68,0.00,,CLR,0.01,0.00,VWS V14.01,2013-01-17 02:11:00,
2013-01-16 20:16:00,30.5,21.2,30.11,West,275,0.0,0.0,68,0.00,,CLR,0.01,0.00,VWS V14.01,2013-01-17 02:16:00,
2013-01-16 20:21:00,30.4,21.1,30.11,West,275,0.0,0.0,68,0.00,,CLR,0.01,0.00,VWS V14.01,2013-01-17 02:21:00,
2013-01-16 20:26:00,30.3,21.4,30.11,West,275,0.0,0.0,69,0.00,,CLR,0.01,0.00,VWS V14.01,2013-01-17 02:26:00,
2013-01-16 20:31:00,30.1,21.2,30.11,West,275,0.0,0.0,69,0.00,,CLR,0.01,0.00,VWS V14.01,2013-01-17 02:31:00,
2013-01-16 20:36:00,30.0,21.1,30.11,West,275,0.0,0.0,69,0.00,,CLR,0.01,0.00,VWS V14.01,2013-01-17 02:36:00,
2013-01-16 20:41:00,29.9,21.3,30.11,West,275,0.0,0.0,70,0.00,,CLR,0.01,0.00,VWS V14.01,2013-01-17 02:41:00,
2013-01-16 20:46:00,29.9,21.3,30.11,West,275,0.0,0.0,70,0.00,,CLR,0.01,0.00,VWS V14.01,2013-01-17 02:46:00,
2013-01-16 20:51:00,29.8,21.2,30.11,West,275,0.0,0.0,70,0.00,,CLR,0.01,0.00,VWS V14.01,2013-01-17 02:51:00,
2013-01-16 20:56:00,29.7,21.1,30.11,West,275,0.0,1.0,70,0.00,,CLR,0.01,0.00,VWS V14.01,2013-01-17 02:56:00,
2013-01-16 21:01:00,29.6,21.0,30.12,West,275,0.0,0.0,70,0.00,,CLR,0.01,0.00,VWS V14.01,2013-01-17 03:01:00,
2013-01-16 21:06:00,29.6,21.0,30.12,West,275,0.0,0.0,70,0.00,,CLR,0.01,0.00,VWS V14.01,2013-01-17 03:06:00,
2013-01-16 21:11:00,29.5,20.9,30.12,West,275,0.0,0.0,70,0.00,,CLR,0.01,0.00,VWS V14.01,2013-01-17 03:11:00,
2013-01-16 21:16:00,29.5,20.9,30.12,West,275,0.0,1.0,70,0.00,,CLR,0.01,0.00,VWS V14.01,2013-01-17 03:16:00,
2013-01-16 21:21:00,29.5,20.9,30.12,West,275,0.0,0.0,70,0.00,,CLR,0.01,0.00,VWS V14.01,2013-01-17 03:21:00,
2013-01-16 21:26:00,29.5,20.9,30.12,West,275,0.0,1.0,70,0.00,,CLR,0.01,0.00,VWS V14.01,2013-01-17 03:26:00,
2013-01-16 21:31:00,29.5,20.9,30.12,West,275,0.0,0.0,70,0.00,,CLR,0.01,0.00,VWS V14.01,2013-01-17 03:31:00,
2013-01-16 21:36:00,29.5,20.9,30.12,West,275,0.0,0.0,70,0.00,,CLR,0.01,0.00,VWS V14.01,2013-01-17 03:36:00,
2013-01-16 21:41:00,29.6,21.0,30.12,West,275,0.0,0.0,70,0.00,,CLR,0.01,0.00,VWS V14.01,2013-01-17 03:41:00,
2013-01-16 21:46:00,29.6,21.0,30.12,West,275,0.0,0.0,70,0.00,,CLR,0.01,0.00,VWS V14.01,2013-01-17 03:46:00,
2013-01-16 21:51:00,29.6,20.7,30.12,West,275,0.0,0.0,69,0.00,,CLR,0.01,0.00,VWS V14.01,2013-01-17 03:51:00,
2013-01-16 21:56:00,29.5,20.6,30.12,West,275,0.0,0.0,69,0.00,,CLR,0.01,0.00,VWS V14.01,2013-01-17 03:56:00,
2013-01-16 22:01:00,29.5,20.6,30.12,West,275,0.0,0.0,69,0.00,,CLR,0.01,0.00,VWS V14.01,2013-01-17 04:01:00,
2013-01-16 22:06:00,29.4,20.5,30.12,West,275,0.0,0.0,69,0.00,,CLR,0.01,0.00,VWS V14.01,2013-01-17 04:06:00,
2013-01-16 22:11:00,29.4,20.8,30.12,West,275,0.0,0.0,70,0.00,,CLR,0.01,0.00,VWS V14.01,2013-01-17 04:11:00,
2013-01-16 22:16:00,29.4,20.5,30.12,West,275,0.0,0.0,69,0.00,,CLR,0.01,0.00,VWS V14.01,2013-01-17 04:16:00,
2013-01-16 22:21:00,29.4,20.5,30.12,West,275,0.0,0.0,69,0.00,,CLR,0.01,0.00,VWS V14.01,2013-01-17 04:21:00,
2013-01-16 22:26:00,29.4,20.5,30.12,West,275,0.0,0.0,69,0.00,,CLR,0.01,0.00,VWS V14.01,2013-01-17 04:26:00,
2013-01-16 22:31:00,29.5,20.6,30.12,West,275,0.0,0.0,69,0.00,,CLR,0.01,0.00,VWS V14.01,2013-01-17 04:31:00,
2013-01-16 22:36:00,29.4,20.5,30.12,West,275,0.0,0.0,69,0.00,,CLR,0.01,0.00,VWS V14.01,2013-01-17 04:36:00,
2013-01-16 22:41:00,29.4,20.5,30.12,West,275,0.0,0.0,69,0.00,,CLR,0.01,0.00,VWS V14.01,2013-01-17 04:41:00,
2013-01-16 22:46:00,29.4,20.5,30.12,West,275,0.0,0.0,69,0.00,,CLR,0.01,0.00,VWS V14.01,2013-01-17 04:46:00,
2013-01-16 22:51:00,29.4,20.5,30.12,West,275,0.0,0.0,69,0.00,,CLR,0.01,0.00,VWS V14.01,2013-01-17 04:51:00,
2013-01-16 22:56:00,29.5,20.6,30.12,West,275,0.0,0.0,69,0.00,,CLR,0.01,0.00,VWS V14.01,2013-01-17 04:56:00,
2013-01-16 23:00:00,29.6,20.7,30.12,West,275,0.0,0.0,69,0.00,,CLR,0.01,0.00,VWS V14.01,2013-01-17 05:00:00,
2013-01-16 23:01:00,29.6,20.7,30.12,West,275,0.0,0.0,69,0.00,,CLR,0.01,0.00,VWS V14.01,2013-01-17 05:01:00,
2013-01-16 23:04:00,29.6,20.4,30.12,West,275,0.0,1.0,68,0.00,,CLR,0.01,0.00,VWS V14.01,2013-01-17 05:04:00,
2013-01-16 23:05:00,29.6,20.4,30.12,West,275,0.0,1.0,68,0.00,,CLR,0.01,0.00,VWS V14.01,2013-01-17 05:05:00,
2013-01-16 23:11:00,29.7,20.5,30.12,West,275,0.0,0.0,68,0.00,,CLR,0.01,0.00,VWS V14.01,2013-01-17 05:11:00,
2013-01-16 23:16:00,29.8,20.5,30.13,West,275,0.0,0.0,68,0.00,,CLR,0.01,0.00,VWS V14.01,2013-01-17 05:16:00,
2013-01-16 23:21:00,29.8,20.5,30.13,West,275,0.0,0.0,68,0.00,,CLR,0.01,0.00,VWS V14.01,2013-01-17 05:21:00,
2013-01-16 23:26:00,29.9,20.6,30.13,West,275,0.0,0.0,68,0.00,,CLR,0.01,0.00,VWS V14.01,2013-01-17 05:26:00,
2013-01-16 23:31:00,29.9,20.6,30.14,West,275,0.0,0.0,68,0.00,,CLR,0.01,0.00,VWS V14.01,2013-01-17 05:31:00,
2013-01-16 23:36:00,29.9,20.6,30.14,West,275,0.0,0.0,68,0.00,,CLR,0.01,0.00,VWS V14.01,2013-01-17 05:36:00,
2013-01-16 23:41:00,30.0,20.4,30.14,West,275,0.0,0.0,67,0.00,,CLR,0.01,0.00,VWS V14.01,2013-01-17 05:41:00,
2013-01-16 23:46:00,30.0,20.4,30.14,West,275,0.0,0.0,67,0.00,,CLR,0.01,0.00,VWS V14.01,2013-01-17 05:46:00,
2013-01-16 23:51:00,30.0,20.4,30.14,West,275,0.0,0.0,67,0.00,,CLR,0.01,0.00,VWS V14.01,2013-01-17 05:51:00,
2013-01-16 23:56:00,30.0,20.4,30.14,West,275,0.0,0.0,67,0.00,,CLR,0.01,0.00,VWS V14.01,2013-01-17 05:56:00,